Time;durP1;ratioP1;P1;durP2;ratioP2;P2;SDS_P1;SDS_P2;PMS_P1;PMS_P2;Temp;Humidity;BMP_temperature;BMP_pressure;BME280_temperature;BME280_humidity;BME280_pressure;Samples;Min_cycle;Max_cycle;Signal;HPM_P1;HPM_P2
2022/12/06 00:01:41;;;;;;;123.45;24.10;;;;;;;3.18;84.12;98929.25;5092232;28;20020;-47
2022/12/06 00:04:10;;;;;;;76.65;22.67;;;;;;;3.13;83.89;98929.66;5092298;28;20109;-47
2022/12/06 00:06:54;;;;;;;61.85;21.88;;;;;;;3.10;83.29;98934.31;5092128;28;20020;-47
2022/12/06 00:09:30;;;;;;;79.13;23.65;;;;;;;2.92;82.75;98929.94;5092254;28;20532;-48
2022/12/06 00:11:57;;;;;;;550.67;58.03;;;;;;;2.92;83.41;98929.13;5092343;28;20109;-48
2022/12/06 00:14:23;;;;;;;40.67;17.95;;;;;;;3.10;83.80;98918.78;5090849;28;20103;-47
2022/12/06 00:16:50;;;;;;;28.25;18.00;;;;;;;3.32;83.58;98923.56;5090818;28;20024;-47
2022/12/06 00:19:19;;;;;;;94.03;21.13;;;;;;;3.44;82.83;98925.91;5091885;28;20040;-48
2022/12/06 00:21:46;;;;;;;115.75;23.95;;;;;;;3.29;81.10;98923.84;5092042;28;20054;-47
2022/12/06 00:24:14;;;;;;;162.27;25.45;;;;;;;3.19;82.14;98917.91;5092241;28;20028;-47
2022/12/06 00:26:42;;;;;;;45.95;20.38;;;;;;;3.22;82.20;98919.38;5092119;28;20393;-47
2022/12/06 00:29:12;;;;;;;286.35;29.50;;;;;;;3.27;82.46;98928.34;5090633;28;20406;-47
2022/12/06 00:31:37;;;;;;;28.67;17.45;;;;;;;3.52;82.86;98926.81;5091923;28;20095;-47
2022/12/06 00:34:03;;;;;;;31.10;18.30;;;;;;;3.81;82.18;98923.13;5091947;28;20573;-47
2022/12/06 00:36:31;;;;;;;45.67;18.13;;;;;;;3.98;81.85;98926.66;5091916;28;20024;-47
2022/12/06 00:39:03;;;;;;;195.10;25.88;;;;;;;4.19;81.45;98924.53;5091455;28;20036;-47
2022/12/06 00:41:28;;;;;;;64.55;19.10;;;;;;;4.23;78.91;98929.44;5091824;28;20494;-47
2022/12/06 00:43:54;;;;;;;26.48;17.40;;;;;;;4.19;78.21;98924.53;5090448;28;20028;-47
2022/12/06 00:46:25;;;;;;;44.90;17.77;;;;;;;4.16;78.23;98918.81;5091634;28;20054;-47
2022/12/06 00:48:53;;;;;;;40.58;17.95;;;;;;;4.03;78.69;98913.25;5090510;28;20111;-47
2022/12/06 00:51:20;;;;;;;34.97;17.33;;;;;;;4.04;78.78;98913.06;5091707;28;20017;-47
2022/12/06 00:53:46;;;;;;;38.45;18.70;;;;;;;4.19;78.87;98915.94;5090462;28;20393;-47
2022/12/06 00:56:12;;;;;;;36.40;18.17;;;;;;;4.24;77.15;98923.25;5091708;28;20028;-47
2022/12/06 00:58:38;;;;;;;44.20;17.65;;;;;;;4.39;76.78;98914.75;5091682;28;20487;-47
2022/12/06 01:01:16;;;;;;;36.63;20.05;;;;;;;4.38;76.09;98907.91;5090275;28;20055;-47
2022/12/06 01:03:43;;;;;;;29.45;17.52;;;;;;;4.62;76.84;98908.19;5091677;28;20110;-47
2022/12/06 01:06:13;;;;;;;30.08;18.23;;;;;;;4.76;75.46;98900.59;5090174;28;20115;-47
2022/12/06 01:08:39;;;;;;;50.83;17.67;;;;;;;4.73;75.22;98900.09;5091516;28;20029;-47
2022/12/06 01:11:06;;;;;;;50.10;17.83;;;;;;;4.66;73.81;98896.50;5091527;28;20023;-47
2022/12/06 01:13:32;;;;;;;31.17;17.17;;;;;;;4.54;74.41;98888.16;5091610;28;20024;-47
2022/12/06 01:16:13;;;;;;;40.83;17.27;;;;;;;4.46;73.96;98894.13;5090247;28;20559;-47
2022/12/06 01:18:40;;;;;;;43.85;16.67;;;;;;;4.45;74.02;98895.13;5089992;28;20405;-47
2022/12/06 01:21:08;;;;;;;49.72;17.75;;;;;;;4.38;73.31;98900.09;5091453;28;20012;-47
2022/12/06 01:23:35;;;;;;;34.88;17.20;;;;;;;4.29;73.70;98892.44;5091427;28;20102;-47
2022/12/06 01:26:01;;;;;;;52.85;18.60;;;;;;;4.38;74.12;98901.88;5089988;28;20021;-47
2022/12/06 01:28:26;;;;;;;38.35;18.17;;;;;;;4.35;73.65;98907.41;5090226;28;20490;-47
2022/12/06 01:30:52;;;;;;;177.13;24.30;;;;;;;4.24;73.56;98911.06;5091319;28;20023;-47
2022/12/06 01:33:18;;;;;;;74.90;22.52;;;;;;;4.14;73.16;98908.56;5091343;28;20028;-47
2022/12/06 01:35:43;;;;;;;99.95;24.63;;;;;;;4.01;73.94;98897.81;5091296;28;20510;-47
2022/12/06 01:38:09;;;;;;;40.35;19.73;;;;;;;4.03;73.79;98905.44;5089982;28;20028;-47
2022/12/06 01:40:39;;;;;;;33.40;20.70;;;;;;;3.99;73.64;98908.34;5089993;28;20493;-47
2022/12/06 01:43:29;;;;;;;35.30;19.95;;;;;;;4.11;74.52;98908.91;5091270;28;20032;-47
2022/12/06 01:45:57;;;;;;;45.53;19.13;;;;;;;4.34;74.56;98905.78;5083490;28;20044;-47
2022/12/06 01:48:24;;;;;;;26.85;16.85;;;;;;;4.43;72.98;98898.81;5091255;28;20073;-47
2022/12/06 01:50:53;;;;;;;60.97;20.17;;;;;;;4.39;74.08;98901.75;5092481;28;20077;-47
2022/12/06 01:53:19;;;;;;;37.40;18.30;;;;;;;4.38;73.57;98897.50;5095026;28;20042;-47
2022/12/06 01:55:45;;;;;;;36.60;17.42;;;;;;;4.16;73.09;98904.03;5093356;28;20510;-47
2022/12/06 01:58:24;;;;;;;25.83;17.65;;;;;;;3.99;73.88;98902.34;5094902;28;20024;-47
2022/12/06 02:00:49;;;;;;;27.67;17.10;;;;;;;4.15;74.31;98907.63;5093407;28;20032;-47
2022/12/06 02:03:22;;;;;;;41.78;16.85;;;;;;;4.20;73.06;98910.59;5094588;28;20065;-47
2022/12/06 02:05:48;;;;;;;30.15;17.35;;;;;;;4.06;72.89;98912.91;5093089;28;20024;-47
2022/12/06 02:08:15;;;;;;;36.17;17.88;;;;;;;4.02;73.50;98906.41;5094478;28;20482;-47
2022/12/06 02:10:41;;;;;;;31.50;20.35;;;;;;;4.14;74.18;98905.97;5094422;28;20027;-47
2022/12/06 02:13:07;;;;;;;31.67;24.98;;;;;;;4.28;73.40;98916.78;5094473;28;20055;-47
2022/12/06 02:16:14;;;;;;;53.47;25.20;;;;;;;4.24;74.14;98910.25;5093097;28;20027;-47
2022/12/06 02:18:45;;;;;;;;;;;;;;;4.32;73.75;98908.50;5032040;28;20478;-47
2022/12/06 02:21:26;;;;;;;27.02;16.52;;;;;;;4.30;73.83;98897.47;5031863;28;19913;-47
2022/12/06 02:24:21;;;;;;;34.60;14.75;;;;;;;4.12;72.60;98892.34;5031903;28;20057;-47
2022/12/06 02:26:56;;;;;;;82.30;19.02;;;;;;;3.67;72.51;98890.75;5031820;28;20038;-47
2022/12/06 02:29:46;;;;;;;63.23;20.60;;;;;;;3.28;74.48;98893.69;5031784;28;20124;-47
2022/12/06 02:32:30;;;;;;;54.00;18.63;;;;;;;3.12;75.34;98899.53;5015001;28;20039;-47
2022/12/06 02:35:33;;;;;;;36.20;19.50;;;;;;;3.07;76.00;98893.94;5031652;28;20033;-47
2022/12/06 02:38:12;;;;;;;85.28;23.73;;;;;;;3.15;76.52;98893.22;5014936;28;20031;-47
2022/12/06 02:40:44;;;;;;;36.72;18.92;;;;;;;3.17;77.23;98896.47;5014965;28;20043;-47
2022/12/06 02:43:17;;;;;;;35.78;17.85;;;;;;;3.16;77.34;98897.47;5031493;28;20164;-47
2022/12/06 02:45:51;;;;;;;44.97;18.42;;;;;;;3.35;77.64;98894.69;5031415;28;20112;-46
2022/12/06 02:48:20;;;;;;;27.80;17.92;;;;;;;3.49;76.84;98893.38;5017898;28;20065;-47
2022/12/06 02:51:08;;;;;;;32.83;18.17;;;;;;;3.85;77.23;98895.09;5093675;28;20024;-47
2022/12/06 02:53:37;;;;;;;33.67;18.10;;;;;;;4.26;76.99;98897.94;5093619;28;20028;-47
2022/12/06 02:56:03;;;;;;;41.28;19.38;;;;;;;4.51;74.98;98889.28;5093605;28;20031;-47
2022/12/06 02:58:36;;;;;;;28.15;16.85;;;;;;;4.54;74.78;98885.56;5092336;28;20042;-47
2022/12/06 03:01:13;;;;;;;30.02;18.40;;;;;;;4.67;74.06;98893.75;5091966;28;20135;-47
2022/12/06 03:04:01;;;;;;;35.47;17.35;;;;;;;4.89;74.14;98887.16;5092193;28;20077;-47
2022/12/06 03:06:46;;;;;;;29.17;17.27;;;;;;;5.07;73.14;98871.41;5091934;28;20035;-47
2022/12/06 03:09:35;;;;;;;31.15;15.75;;;;;;;5.02;71.86;98886.69;5093350;28;20020;-47
2022/12/06 03:12:04;;;;;;;47.83;19.25;;;;;;;4.83;71.23;98879.97;5092008;28;20028;-47
2022/12/06 03:14:59;;;;;;;39.35;19.73;;;;;;;4.55;71.98;98884.59;5091900;28;20020;-47
2022/12/06 03:17:57;;;;;;;29.85;18.48;;;;;;;4.54;73.20;98878.56;5093135;28;20050;-47
2022/12/06 03:20:41;;;;;;;31.25;15.88;;;;;;;4.79;72.95;98876.06;5093132;28;20032;-47
2022/12/06 03:23:13;;;;;;;41.88;18.70;;;;;;;4.92;72.43;98873.81;5093349;28;20114;-47
2022/12/06 03:25:41;;;;;;;33.47;18.85;;;;;;;5.09;72.41;98868.63;5091604;28;20028;-47
2022/12/06 03:28:10;;;;;;;37.95;18.55;;;;;;;5.19;71.97;98871.91;5091565;28;20035;-47
2022/12/06 03:30:37;;;;;;;28.65;16.63;;;;;;;5.20;72.14;98857.94;5091861;28;20020;-47
2022/12/06 03:33:03;;;;;;;28.75;17.45;;;;;;;5.28;71.96;98852.72;5092895;28;20024;-47
2022/12/06 03:35:32;;;;;;;36.35;17.17;;;;;;;5.34;71.32;98854.69;5091468;28;20024;-47
2022/12/06 03:38:10;;;;;;;34.28;18.98;;;;;;;5.16;71.20;98854.84;5091766;28;20465;-47
2022/12/06 03:40:41;;;;;;;54.75;20.48;;;;;;;5.14;71.20;98863.78;5091416;28;20103;-47
2022/12/06 03:43:07;;;;;;;34.03;18.85;;;;;;;5.23;71.36;98855.00;5092719;28;20040;-47
2022/12/06 03:45:57;;;;;;;30.40;17.80;;;;;;;5.39;71.88;98862.00;5091339;28;20031;-47
2022/12/06 03:48:36;;;;;;;37.35;19.17;;;;;;;5.49;70.65;98861.84;5092187;28;20056;-47
2022/12/06 03:51:09;;;;;;;60.65;18.48;;;;;;;5.41;70.48;98852.22;5092563;28;20050;-47
2022/12/06 03:53:45;;;;;;;39.65;19.00;;;;;;;5.27;71.33;98860.69;5092562;28;20028;-47
2022/12/06 03:56:11;;;;;;;70.40;20.52;;;;;;;5.35;70.76;98855.50;5091108;28;20028;-47
2022/12/06 03:58:37;;;;;;;37.50;20.98;;;;;;;5.46;71.69;98846.56;5092434;28;20118;-47
2022/12/06 04:01:03;;;;;;;32.15;19.60;;;;;;;5.69;71.87;98841.47;5092344;28;20043;-47
2022/12/06 04:03:30;;;;;;;34.42;19.95;;;;;;;5.73;70.84;98840.97;5092547;28;20028;-47
2022/12/06 04:05:55;;;;;;;35.92;18.80;;;;;;;5.80;70.26;98835.94;5092171;28;20020;-47
2022/12/06 04:08:21;;;;;;;33.17;18.65;;;;;;;5.80;70.04;98841.97;5092277;28;20486;-47
2022/12/06 04:10:47;;;;;;;43.20;19.70;;;;;;;5.82;70.12;98833.19;5090867;28;20099;-47
2022/12/06 04:13:12;;;;;;;35.28;20.65;;;;;;;5.84;70.41;98820.81;5091566;28;20105;-47
2022/12/06 04:15:38;;;;;;;43.38;20.35;;;;;;;5.89;70.27;98828.91;5092363;28;20541;-47
2022/12/06 04:18:12;;;;;;;47.72;20.13;;;;;;;5.70;70.01;98823.09;5090476;28;20414;-48
2022/12/06 04:23:36;;;;;;;43.72;20.58;;;;;;;5.45;70.34;98826.69;5092372;28;20604;-47
2022/12/06 04:26:05;;;;;;;41.75;18.67;;;;;;;5.54;70.41;98823.13;5090631;28;20067;-47
2022/12/06 04:39:28;;;;;;;52.15;21.30;;;;;;;4.93;71.94;98826.03;5092165;28;20070;-47
2022/12/06 04:44:38;;;;;;;51.83;19.92;;;;;;;4.86;72.31;98813.84;5092068;28;20114;-47
2022/12/06 04:47:04;;;;;;;48.28;20.65;;;;;;;4.89;72.96;98813.50;5090470;28;20028;-47
2022/12/06 04:49:30;;;;;;;65.05;20.45;;;;;;;4.98;72.73;98818.56;5091830;28;20172;-47
2022/12/06 04:51:56;;;;;;;52.92;21.60;;;;;;;5.02;73.01;98819.06;5090423;28;20485;-47
2022/12/06 04:54:23;;;;;;;45.53;19.38;;;;;;;5.07;72.61;98822.00;5091714;28;20024;-47
2022/12/06 04:56:48;;;;;;;44.85;20.13;;;;;;;5.12;72.87;98811.91;5091774;28;20107;-47
2022/12/06 04:59:14;;;;;;;53.53;20.52;;;;;;;5.30;73.72;98814.34;5090350;28;20127;-47
2022/12/06 05:01:40;;;;;;;76.50;20.27;;;;;;;5.44;72.56;98809.47;5090421;28;20016;-47
2022/12/06 05:04:05;;;;;;;40.45;18.40;;;;;;;5.48;72.09;98808.97;5090349;28;20036;-47
2022/12/06 05:06:31;;;;;;;333.45;31.95;;;;;;;5.47;72.12;98811.72;5091771;28;20026;-46
2022/12/06 05:08:57;;;;;;;63.42;18.48;;;;;;;5.24;71.65;98814.19;5091582;28;20485;-47
2022/12/06 05:11:22;;;;;;;210.23;21.77;;;;;;;5.11;72.90;98810.28;5090277;28;20078;-46
2022/12/06 05:13:48;;;;;;;39.38;20.88;;;;;;;5.05;73.16;98817.91;5090228;28;20032;-46
2022/12/06 05:16:13;;;;;;;55.00;20.42;;;;;;;5.18;73.46;98813.06;5091490;28;20537;-47
2022/12/06 05:18:39;;;;;;;221.43;27.52;;;;;;;5.15;72.77;98813.38;5090092;28;20037;-47
2022/12/06 05:21:07;;;;;;;93.38;22.58;;;;;;;5.11;73.62;98810.28;5091699;28;20073;-47
2022/12/06 05:23:34;;;;;;;43.42;19.35;;;;;;;5.23;74.12;98813.38;5091746;28;20433;-47
2022/12/06 05:26:02;;;;;;;40.22;18.67;;;;;;;5.47;73.83;98812.53;5094511;28;20070;-47
2022/12/06 05:28:29;;;;;;;44.22;19.67;;;;;;;5.48;73.09;98808.97;5093979;28;20048;-47
2022/12/06 05:30:55;;;;;;;61.50;19.88;;;;;;;5.40;72.92;98816.78;5095248;28;20035;-46
2022/12/06 05:33:22;;;;;;;57.13;20.23;;;;;;;5.28;73.86;98824.09;5095138;28;20024;-46
2022/12/06 05:35:48;;;;;;;80.78;20.35;;;;;;;5.23;73.48;98820.38;5095167;28;20070;-46
2022/12/06 05:38:13;;;;;;;418.05;39.92;;;;;;;5.08;74.11;98820.19;5095074;28;20048;-46
2022/12/06 05:40:40;;;;;;;63.53;21.23;;;;;;;5.07;74.22;98815.97;5095283;28;20035;-46
2022/12/06 05:43:06;;;;;;;47.85;20.52;;;;;;;5.22;74.70;98818.75;5094992;28;20024;-46
2022/12/06 05:45:31;;;;;;;56.47;21.08;;;;;;;5.38;74.92;98814.34;5094896;28;20371;-46
2022/12/06 05:47:57;;;;;;;36.55;20.27;;;;;;;5.55;75.26;98814.31;5094912;28;20031;-46
2022/12/06 05:50:22;;;;;;;44.42;21.30;;;;;;;5.82;75.27;98818.38;5093553;28;20051;-46
2022/12/06 05:52:53;;;;;;;34.65;18.80;;;;;;;5.89;74.72;98818.50;5093449;28;20125;-46
2022/12/06 05:55:18;;;;;;;35.85;17.95;;;;;;;6.08;74.28;98825.16;5095057;28;20024;-46
2022/12/06 05:57:47;;;;;;;39.72;20.00;;;;;;;6.34;72.77;98819.69;5094793;28;20051;-47
2022/12/06 06:00:14;;;;;;;39.47;19.92;;;;;;;6.41;72.78;98818.03;5094628;28;20051;-46
2022/12/06 06:02:40;;;;;;;39.97;19.73;;;;;;;6.47;72.23;98816.53;5093369;28;20056;-46
2022/12/06 06:05:06;;;;;;;31.85;18.02;;;;;;;6.54;72.00;98814.84;5094470;28;20024;-46
2022/12/06 06:07:32;;;;;;;29.02;17.45;;;;;;;6.58;71.57;98822.19;5094588;28;20016;-46
2022/12/06 06:09:57;;;;;;;30.90;17.70;;;;;;;6.71;71.59;98820.81;5094475;28;20024;-46
2022/12/06 06:12:23;;;;;;;31.83;16.63;;;;;;;6.65;70.95;98821.50;5093073;28;20024;-47
2022/12/06 06:14:49;;;;;;;27.13;15.15;;;;;;;6.67;70.42;98817.72;5094666;28;20020;-47
2022/12/06 06:17:14;;;;;;;34.17;17.10;;;;;;;6.75;69.95;98819.47;5092981;28;20099;-47
2022/12/06 06:19:40;;;;;;;33.10;16.65;;;;;;;6.83;70.06;98829.06;5094151;28;20063;-46
2022/12/06 06:22:06;;;;;;;28.20;14.88;;;;;;;6.73;69.18;98826.66;5094255;28;20427;-46
2022/12/06 06:24:36;;;;;;;29.13;15.50;;;;;;;6.60;69.17;98825.44;5092814;28;20050;-47
2022/12/06 06:27:02;;;;;;;42.90;17.58;;;;;;;6.48;69.65;98834.63;5094165;28;20020;-47
2022/12/06 06:29:29;;;;;;;30.13;16.17;;;;;;;6.43;69.38;98842.13;5092808;28;20024;-47
2022/12/06 06:31:55;;;;;;;25.63;14.52;;;;;;;6.33;69.45;98844.94;5094296;28;20371;-47
2022/12/06 06:34:20;;;;;;;24.90;14.73;;;;;;;6.27;69.76;98847.41;5092746;28;20028;-47
2022/12/06 06:36:46;;;;;;;31.63;17.92;;;;;;;6.26;70.28;98850.97;5093308;28;20401;-47
2022/12/06 06:39:12;;;;;;;26.90;15.20;;;;;;;6.31;70.20;98844.28;5092623;28;20039;-47
2022/12/06 06:41:38;;;;;;;33.83;18.60;;;;;;;6.45;69.91;98842.75;5093893;28;20051;-47
2022/12/06 06:44:04;;;;;;;46.10;17.42;;;;;;;6.55;69.82;98837.34;5093803;28;20107;-47
2022/12/06 06:46:30;;;;;;;28.45;15.65;;;;;;;6.70;69.53;98829.59;5093656;28;20024;-47
2022/12/06 06:48:55;;;;;;;32.70;16.15;;;;;;;6.69;69.46;98828.78;5093711;28;20028;-47
2022/12/06 06:51:21;;;;;;;29.20;15.85;;;;;;;6.75;69.52;98835.94;5093673;28;20084;-47
2022/12/06 06:53:46;;;;;;;32.72;17.90;;;;;;;6.74;69.07;98834.31;5092721;28;20027;-47
2022/12/06 06:56:12;;;;;;;30.00;17.52;;;;;;;6.72;68.99;98835.47;5093768;28;20389;-47
2022/12/06 06:58:38;;;;;;;24.00;14.25;;;;;;;6.71;68.72;98834.66;5093610;28;20619;-47
2022/12/06 07:01:06;;;;;;;24.67;16.38;;;;;;;6.73;68.44;98837.91;5093433;28;20028;-47
2022/12/06 07:03:32;;;;;;;27.85;15.38;;;;;;;6.65;67.65;98834.53;5093480;28;20031;-47
2022/12/06 07:06:07;;;;;;;33.58;16.05;;;;;;;6.30;67.38;98837.47;5091967;28;20497;-47
2022/12/06 07:08:33;;;;;;;28.40;14.50;;;;;;;6.20;67.15;98837.66;5092167;28;20042;-47
2022/12/06 07:10:59;;;;;;;28.35;15.93;;;;;;;5.90;67.07;98835.75;5093234;28;20401;-47
2022/12/06 07:13:27;;;;;;;27.42;16.48;;;;;;;5.62;67.58;98837.94;5093197;28;20020;-47
2022/12/06 07:15:53;;;;;;;30.05;15.40;;;;;;;5.49;68.56;98839.22;5093433;28;20452;-47
2022/12/06 07:18:19;;;;;;;37.65;16.35;;;;;;;5.33;69.51;98840.06;5091569;28;20046;-47
2022/12/06 07:20:46;;;;;;;26.23;15.75;;;;;;;5.31;70.17;98844.63;5093033;28;20020;-47
2022/12/06 07:23:12;;;;;;;40.60;14.85;;;;;;;5.50;71.17;98843.47;5091768;28;20032;-47
2022/12/06 07:25:37;;;;;;;32.60;16.73;;;;;;;5.69;70.70;98854.50;5092949;28;20016;-46
2022/12/06 07:28:03;;;;;;;45.25;16.92;;;;;;;5.74;69.68;98849.63;5091607;28;20020;-47
2022/12/06 07:30:30;;;;;;;42.10;17.20;;;;;;;5.64;69.90;98851.59;5092974;28;20020;-46
2022/12/06 07:32:56;;;;;;;43.08;18.60;;;;;;;5.50;69.85;98851.28;5091604;28;20058;-47
2022/12/06 07:35:21;;;;;;;32.60;17.08;;;;;;;5.34;70.64;98852.09;5092866;28;20040;-47
2022/12/06 07:37:47;;;;;;;31.55;16.85;;;;;;;5.12;71.14;98853.53;5091478;28;20027;-46
2022/12/06 07:40:14;;;;;;;28.30;15.50;;;;;;;5.02;71.10;98859.88;5091732;28;20062;-47
2022/12/06 07:45:25;;;;;;;47.85;19.33;;;;;;;4.88;72.68;98862.09;5092812;28;20086;-46
2022/12/06 07:47:51;;;;;;;45.80;17.65;;;;;;;4.91;73.24;98856.59;5091862;28;20032;-46
2022/12/06 07:50:20;;;;;;;38.30;19.98;;;;;;;5.07;72.95;98850.63;5091356;28;20073;-47
2022/12/06 07:52:48;;;;;;;32.33;16.70;;;;;;;5.38;73.86;98857.78;5092746;28;20398;-47
2022/12/06 07:55:16;;;;;;;35.22;18.17;;;;;;;5.64;73.33;98856.81;5091145;28;20039;-47
2022/12/06 07:57:42;;;;;;;57.70;17.65;;;;;;;5.69;71.74;98855.31;5092499;28;20032;-47
2022/12/06 08:00:10;;;;;;;124.30;23.60;;;;;;;5.56;72.10;98858.41;5092368;28;20016;-47
2022/12/06 08:02:35;;;;;;;29.73;16.90;;;;;;;5.56;71.99;98863.63;5092333;28;20055;-47
2022/12/06 08:05:01;;;;;;;46.30;16.02;;;;;;;5.64;70.65;98859.41;5092165;28;20060;-47
2022/12/06 08:07:26;;;;;;;38.47;19.30;;;;;;;5.64;71.27;98859.41;5092295;28;20490;-46
2022/12/06 08:09:53;;;;;;;38.90;18.25;;;;;;;5.81;71.14;98861.00;5092187;28;20024;-46
2022/12/06 08:12:20;;;;;;;39.55;16.67;;;;;;;5.84;70.93;98870.28;5090929;28;20020;-46
2022/12/06 08:14:46;;;;;;;43.38;19.30;;;;;;;5.74;70.97;98873.06;5090871;28;20020;-47
2022/12/06 08:17:12;;;;;;;31.85;17.02;;;;;;;5.82;70.88;98880.06;5092126;28;20035;-46
2022/12/06 08:19:38;;;;;;;38.47;17.45;;;;;;;5.93;71.28;98872.69;5091962;28;20040;-46
2022/12/06 08:22:03;;;;;;;39.30;17.80;;;;;;;6.10;70.74;98878.72;5090741;28;20016;-46
2022/12/06 08:24:30;;;;;;;34.47;16.10;;;;;;;6.17;70.40;98871.84;5090877;28;20540;-47
2022/12/06 08:26:57;;;;;;;39.42;16.50;;;;;;;6.33;70.31;98870.19;5091990;28;20212;-47
2022/12/06 08:29:22;;;;;;;53.47;18.50;;;;;;;6.35;69.70;98869.03;5091994;28;20082;-47
2022/12/06 08:31:48;;;;;;;45.72;19.85;;;;;;;6.20;69.92;98874.13;5091907;28;20020;-46
2022/12/06 08:34:15;;;;;;;35.17;17.88;;;;;;;6.26;69.82;98870.06;5092156;28;20095;-47
2022/12/06 08:36:41;;;;;;;37.58;17.85;;;;;;;6.46;70.18;98873.09;5091878;28;20052;-47
2022/12/06 08:39:10;;;;;;;34.60;18.60;;;;;;;6.60;69.66;98876.78;5090531;28;20512;-46
2022/12/06 08:41:54;;;;;;;36.53;17.10;;;;;;;6.60;69.22;98885.41;5091817;28;20039;-46
2022/12/06 08:44:20;;;;;;;33.92;19.40;;;;;;;6.62;68.86;98877.41;5090536;28;20094;-47
2022/12/06 08:46:46;;;;;;;35.72;18.45;;;;;;;6.73;68.56;98882.25;5091718;28;20116;-47
2022/12/06 08:49:14;;;;;;;36.38;18.52;;;;;;;6.74;68.36;98880.44;5091775;28;20107;-47
2022/12/06 08:51:40;;;;;;;41.40;22.38;;;;;;;6.72;69.25;98872.81;5090409;28;20519;-46
2022/12/06 08:54:08;;;;;;;31.30;18.30;;;;;;;6.93;68.31;98874.78;5073629;28;20460;-46
2022/12/06 08:56:36;;;;;;;35.55;19.92;;;;;;;7.05;68.20;98877.03;5091770;28;20375;-47
2022/12/06 08:59:02;;;;;;;45.05;21.80;;;;;;;7.10;68.06;98887.75;5091636;28;20032;-47
2022/12/06 09:01:30;;;;;;;32.65;16.88;;;;;;;6.94;67.95;98886.88;5095778;28;20027;-46
2022/12/06 09:04:00;;;;;;;32.63;18.15;;;;;;;6.93;68.64;98887.03;5077554;28;20476;-47
2022/12/06 09:06:27;;;;;;;34.85;16.90;;;;;;;7.06;68.25;98887.28;5095626;28;20623;-47
2022/12/06 09:08:53;;;;;;;31.90;17.33;;;;;;;7.22;67.75;98891.56;5095646;28;20024;-46
2022/12/06 09:11:18;;;;;;;33.63;18.52;;;;;;;7.38;66.79;98893.25;5095583;28;20119;-47
2022/12/06 09:13:45;;;;;;;28.77;16.38;;;;;;;7.43;66.92;98895.38;5094228;28;20035;-47
2022/12/06 09:16:16;;;;;;;29.17;16.48;;;;;;;7.60;67.31;98891.63;5095587;28;20028;-46
2022/12/06 09:18:42;;;;;;;34.85;15.88;;;;;;;7.75;66.63;98889.88;5095333;28;20131;-47
2022/12/06 09:21:16;;;;;;;25.50;16.45;;;;;;;7.69;65.71;98898.41;5094160;28;20016;-47
2022/12/06 09:23:43;;;;;;;32.15;17.95;;;;;;;7.52;65.66;98904.75;5094118;28;20041;-47
2022/12/06 09:26:09;;;;;;;35.08;17.65;;;;;;;7.50;66.37;98901.50;5095313;28;20024;-47
2022/12/06 09:28:36;;;;;;;31.30;17.70;;;;;;;7.49;65.92;98911.16;5095337;28;20040;-47
2022/12/06 09:31:03;;;;;;;29.73;17.48;;;;;;;7.42;65.91;98904.97;5095224;28;20103;-47
2022/12/06 09:33:29;;;;;;;43.50;16.20;;;;;;;7.48;66.42;98912.13;5093882;28;20031;-47
2022/12/06 09:35:56;;;;;;;33.53;17.80;;;;;;;7.67;66.01;98903.00;5093835;28;20024;-46
2022/12/06 09:38:24;;;;;;;32.00;16.45;;;;;;;7.91;65.75;98903.78;5095079;28;20056;-46
2022/12/06 09:41:17;;;;;;;29.90;16.73;;;;;;;8.13;65.22;98904.69;5093764;28;20020;-46
2022/12/06 09:44:01;;;;;;;41.95;18.70;;;;;;;8.26;65.23;98896.25;5093742;28;20028;-47
2022/12/06 09:46:49;;;;;;;48.17;18.60;;;;;;;8.16;63.88;98899.94;5094975;28;20035;-47
2022/12/06 09:49:27;;;;;;;43.08;16.98;;;;;;;8.02;65.11;98894.69;5075856;28;20040;-47
2022/12/06 09:52:24;;;;;;;40.60;18.08;;;;;;;8.03;64.68;98902.38;5094913;28;20387;-47
2022/12/06 09:55:15;;;;;;;40.60;17.45;;;;;;;8.14;64.50;98906.34;5094926;28;20494;-47
2022/12/06 09:58:10;;;;;;;40.97;17.60;;;;;;;8.11;63.95;98896.22;5094851;28;20516;-47
2022/12/06 10:01:17;;;;;;;29.97;17.47;;;;;;;8.07;63.33;98895.78;5093543;28;20051;-47
2022/12/06 10:04:08;;;;;;;38.33;17.85;;;;;;;7.80;63.82;98897.97;5094766;28;20020;-47
2022/12/06 10:06:45;;;;;;;35.22;17.98;;;;;;;7.85;64.57;98902.69;5094421;28;20477;-47
2022/12/06 10:09:16;;;;;;;31.13;18.10;;;;;;;7.86;64.49;98908.72;5094459;28;20047;-46
2022/12/06 10:11:54;;;;;;;31.23;19.23;;;;;;;7.64;63.36;98907.75;5093341;28;20043;-47
2022/12/06 10:14:34;;;;;;;36.70;20.50;;;;;;;7.05;64.42;98900.50;5094533;28;20031;-46
2022/12/06 10:17:40;;;;;;;35.28;16.80;;;;;;;6.84;66.63;98911.53;5094659;28;20383;-47
2022/12/06 10:20:11;;;;;;;36.03;17.23;;;;;;;7.15;66.96;98901.09;5085211;28;20055;-47
2022/12/06 10:22:54;;;;;;;31.05;16.45;;;;;;;7.48;66.49;98895.66;5092945;28;20107;-47
2022/12/06 10:25:39;;;;;;;41.03;21.10;;;;;;;7.62;65.55;98889.66;5094234;28;20026;-47
2022/12/06 10:28:27;;;;;;;44.63;21.27;;;;;;;7.56;65.06;98890.34;5094303;28;20517;-47
2022/12/06 10:30:58;;;;;;;86.00;61.13;;;;;;;7.35;65.23;98894.44;5090792;28;20064;-47
2022/12/06 10:33:40;;;;;;;38.85;23.50;;;;;;;7.39;65.97;98893.09;5092815;28;20028;-47
2022/12/06 10:36:08;;;;;;;38.20;24.27;;;;;;;7.57;65.58;98892.00;5094062;28;20111;-47
2022/12/06 10:38:38;;;;;;;35.08;22.65;;;;;;;7.73;65.25;98886.63;5092948;28;20039;-47
2022/12/06 10:41:27;;;;;;;38.08;18.52;;;;;;;7.82;65.50;98881.31;5092602;28;20016;-47
2022/12/06 10:44:19;;;;;;;36.92;17.88;;;;;;;7.84;64.60;98882.75;5093977;28;20032;-47
2022/12/06 10:47:05;;;;;;;31.30;16.13;;;;;;;7.51;64.53;98879.63;5093706;28;20035;-47
2022/12/06 10:49:49;;;;;;;32.22;18.50;;;;;;;7.56;65.08;98878.09;5093766;28;20024;-47
2022/12/06 10:52:42;;;;;;;27.73;16.42;;;;;;;7.72;64.35;98874.53;5093777;28;20032;-47
2022/12/06 10:55:10;;;;;;;26.67;16.27;;;;;;;7.73;64.40;98870.94;5092269;28;20024;-47
2022/12/06 10:57:42;;;;;;;35.80;19.05;;;;;;;7.79;63.82;98869.44;5093614;28;20107;-47
2022/12/06 11:00:22;;;;;;;31.85;18.17;;;;;;;7.71;65.19;98865.09;5093502;28;20024;-47
2022/12/06 11:02:56;;;;;;;41.58;19.65;;;;;;;7.67;64.42;98861.22;5092197;28;20028;-47
2022/12/06 11:05:29;;;;;;;30.27;19.33;;;;;;;7.53;64.33;98857.56;5093519;28;20028;-47
2022/12/06 11:08:02;;;;;;;36.42;20.08;;;;;;;7.46;64.13;98863.66;5093426;28;20123;-47
2022/12/06 11:10:32;;;;;;;50.00;22.50;;;;;;;7.35;64.28;98855.28;5093410;28;20509;-47
2022/12/06 11:13:13;;;;;;;35.47;19.55;;;;;;;7.18;64.59;98851.16;5093323;28;20077;-47
2022/12/06 11:15:46;;;;;;;44.88;21.83;;;;;;;7.08;64.49;98853.97;5091935;28;20046;-47
2022/12/06 11:18:15;;;;;;;42.20;23.48;;;;;;;7.03;64.80;98842.47;5093142;28;20054;-47
2022/12/06 11:20:58;;;;;;;46.00;23.67;;;;;;;7.01;64.70;98850.47;5093140;28;20492;-47
2022/12/06 11:23:39;;;;;;;39.05;23.10;;;;;;;6.96;65.45;98847.53;5091674;28;20096;-47
2022/12/06 11:26:26;;;;;;;43.10;22.90;;;;;;;7.16;65.74;98838.28;5093017;28;20024;-47
2022/12/06 11:29:03;;;;;;;43.45;22.45;;;;;;;7.48;65.54;98839.00;5092990;28;20056;-47
2022/12/06 11:31:46;;;;;;;50.88;25.23;;;;;;;7.33;64.85;98835.56;5092949;28;20490;-47
2022/12/06 11:34:21;;;;;;;37.42;22.75;;;;;;;7.38;65.76;98831.44;5092952;28;20028;-47
2022/12/06 11:36:50;;;;;;;45.40;22.80;;;;;;;7.44;65.19;98831.69;5092933;28;20090;-47
2022/12/06 11:39:16;;;;;;;36.58;20.75;;;;;;;7.39;65.52;98820.00;5093087;28;20447;-47
2022/12/06 11:41:46;;;;;;;48.10;22.25;;;;;;;7.52;64.11;98821.19;5092959;28;20472;-47
2022/12/06 11:44:20;;;;;;;44.85;25.52;;;;;;;7.38;64.92;98820.16;5092749;28;20379;-47
2022/12/06 11:46:59;;;;;;;40.63;24.75;;;;;;;7.59;66.06;98815.09;5092819;28;20051;-47
2022/12/06 11:49:38;;;;;;;51.65;23.88;;;;;;;7.96;65.00;98812.59;5092648;28;20081;-47
2022/12/06 11:52:09;;;;;;;41.90;23.98;;;;;;;8.03;64.64;98810.88;5092620;28;20024;-47
2022/12/06 11:55:30;;;;;;;37.95;23.52;;;;;;;7.78;63.17;98813.75;5091275;28;20077;-47
2022/12/06 11:58:08;;;;;;;38.00;22.52;;;;;;;7.26;63.98;98804.09;5030066;28;20064;-47
2022/12/06 12:00:34;;;;;;;37.97;22.45;;;;;;;7.31;64.69;98812.22;5030062;28;20044;-47
2022/12/06 12:02:59;;;;;;;37.70;20.83;;;;;;;7.50;65.21;98802.28;5030059;28;20021;-47